Time;durP1;ratioP1;P1;durP2;ratioP2;P2;SDS_P1;SDS_P2;PMS_P1;PMS_P2;Temp;Humidity;BMP_temperature;BMP_pressure;BME280_temperature;BME280_humidity;BME280_pressure;Samples;Min_cycle;Max_cycle;Signal;HPM_P1;HPM_P2
2023/06/22 00:01:53;;;;;;;11.82;8.57;;;22.80;99.90;;;;;;4997683;28;20065;-75
2023/06/22 00:04:18;;;;;;;12.45;8.02;;;22.70;99.90;;;;;;4998116;28;20062;-75
2023/06/22 00:06:44;;;;;;;11.57;7.88;;;22.80;99.90;;;;;;4997479;28;20022;-75
2023/06/22 00:09:10;;;;;;;10.75;8.32;;;22.80;99.90;;;;;;4997903;28;20023;-75
2023/06/22 00:11:36;;;;;;;11.88;7.72;;;22.90;99.90;;;;;;4997915;28;20023;-75
2023/06/22 00:14:02;;;;;;;10.35;7.25;;;22.90;99.90;;;;;;4997704;28;20054;-75
2023/06/22 00:16:28;;;;;;;9.93;7.18;;;22.60;99.90;;;;;;4997728;28;20065;-75
2023/06/22 00:18:53;;;;;;;14.52;8.70;;;22.70;99.90;;;;;;4997742;28;20026;-75
2023/06/22 00:21:22;;;;;;;13.05;8.98;;;22.70;99.90;;;;;;4997414;28;20100;-75
2023/06/22 00:23:47;;;;;;;12.70;7.95;;;22.60;99.90;;;;;;4998213;28;20053;-75
2023/06/22 00:26:14;;;;;;;11.25;8.77;;;22.70;99.90;;;;;;4997922;28;20061;-75
2023/06/22 00:28:40;;;;;;;12.65;8.27;;;22.70;99.90;;;;;;4997724;28;20065;-75
2023/06/22 00:31:05;;;;;;;11.38;8.07;;;22.70;99.90;;;;;;4997311;28;20089;-75
2023/06/22 00:33:31;;;;;;;10.77;8.07;;;22.70;99.90;;;;;;4997338;28;20050;-75
2023/06/22 00:35:57;;;;;;;13.98;8.85;;;22.70;99.90;;;;;;4997090;28;20031;-75
2023/06/22 00:38:22;;;;;;;14.55;9.25;;;22.80;99.90;;;;;;4997851;28;20022;-74
2023/06/22 00:40:48;;;;;;;9.73;7.57;;;22.60;99.90;;;;;;4998246;28;20030;-75
2023/06/22 00:43:13;;;;;;;11.82;8.35;;;22.80;99.90;;;;;;4997155;28;20049;-75
2023/06/22 00:45:39;;;;;;;17.20;9.10;;;22.80;99.90;;;;;;4997847;28;20034;-75
2023/06/22 00:48:05;;;;;;;14.90;8.57;;;22.80;99.90;;;;;;4996825;28;20026;-75
2023/06/22 00:50:33;;;;;;;14.98;8.77;;;22.70;99.90;;;;;;4997406;28;20037;-75
2023/06/22 00:53:07;;;;;;;15.15;8.75;;;22.70;99.90;;;;;;4997159;28;20037;-75
2023/06/22 00:55:32;;;;;;;16.02;8.48;;;22.80;99.90;;;;;;4997554;28;20128;-75
2023/06/22 00:57:58;;;;;;;14.73;8.45;;;22.80;99.90;;;;;;4997273;28;20070;-75
2023/06/22 01:00:24;;;;;;;15.15;8.73;;;22.70;99.90;;;;;;4997361;28;20030;-75
2023/06/22 01:02:53;;;;;;;14.30;9.30;;;22.70;99.90;;;;;;4996665;28;20031;-75
2023/06/22 01:05:21;;;;;;;12.43;8.98;;;22.60;99.90;;;;;;4996888;28;20032;-75
2023/06/22 01:08:18;;;;;;;15.45;9.88;;;22.70;99.90;;;;;;4996946;28;20022;-75
2023/06/22 01:10:47;;;;;;;13.23;10.02;;;22.70;99.90;;;;;;4997441;28;20018;-75
2023/06/22 01:13:29;;;;;;;16.10;9.75;;;22.60;99.90;;;;;;4996590;28;20117;-75
2023/06/22 01:16:16;;;;;;;14.80;10.73;;;22.60;99.90;;;;;;4996871;28;20030;-75
2023/06/22 01:18:43;;;;;;;19.05;10.23;;;22.50;99.90;;;;;;4996861;28;20034;-75
2023/06/22 01:21:14;;;;;;;12.35;9.60;;;22.60;99.90;;;;;;4997384;28;20049;-75
2023/06/22 01:23:56;;;;;;;18.92;10.70;;;22.60;99.90;;;;;;4997197;28;20029;-75
2023/06/22 01:26:43;;;;;;;18.52;10.45;;;22.60;99.90;;;;;;4997259;28;20037;-74
2023/06/22 01:29:12;;;;;;;17.85;11.65;;;22.50;99.90;;;;;;4997683;28;20025;-75
2023/06/22 01:31:40;;;;;;;18.00;10.30;;;22.50;99.90;;;;;;4996717;28;20029;-75
2023/06/22 01:34:07;;;;;;;19.33;11.45;;;22.30;99.90;;;;;;4996692;28;20026;-75
2023/06/22 01:36:34;;;;;;;17.33;11.18;;;22.40;99.90;;;;;;4996732;28;20034;-75
2023/06/22 01:39:02;;;;;;;18.42;10.57;;;22.50;99.90;;;;;;4996970;28;20036;-75
2023/06/22 01:41:30;;;;;;;17.02;11.23;;;22.50;99.90;;;;;;4996297;28;20026;-75
2023/06/22 01:43:56;;;;;;;22.33;11.77;;;22.60;99.90;;;;;;4996539;28;20026;-75
2023/06/22 01:46:22;;;;;;;19.70;10.95;;;22.60;99.90;;;;;;4996876;28;20090;-75
2023/06/22 01:48:49;;;;;;;18.05;11.70;;;22.60;99.90;;;;;;4997017;28;20026;-75
2023/06/22 01:51:15;;;;;;;20.90;11.27;;;22.60;99.90;;;;;;4997477;28;20105;-75
2023/06/22 01:53:41;;;;;;;16.95;10.65;;;22.50;99.90;;;;;;4996625;28;20030;-75
2023/06/22 01:56:07;;;;;;;15.38;11.50;;;22.50;99.90;;;;;;4997508;28;20018;-75
2023/06/22 01:58:33;;;;;;;16.27;10.32;;;22.30;99.90;;;;;;4997375;28;20034;-75
2023/06/22 02:01:10;;;;;;;17.25;10.93;;;22.20;99.90;;;;;;4999619;28;20029;-75
2023/06/22 02:03:41;;;;;;;20.50;11.40;;;22.20;99.90;;;;;;5000147;28;20022;-74
2023/06/22 02:06:15;;;;;;;20.08;11.60;;;22.20;99.90;;;;;;5001088;28;20081;-75
2023/06/22 02:08:54;;;;;;;17.58;11.05;;;22.10;99.90;;;;;;5000227;28;20037;-75
2023/06/22 02:11:21;;;;;;;20.33;11.90;;;22.00;99.90;;;;;;5000710;28;20027;-75
2023/06/22 02:13:48;;;;;;;17.98;11.55;;;22.10;99.90;;;;;;4999735;28;20034;-75
2023/06/22 02:16:15;;;;;;;16.38;11.32;;;22.10;99.90;;;;;;5000522;28;20026;-75
2023/06/22 02:18:51;;;;;;;17.75;11.00;;;22.20;99.90;;;;;;5000021;28;20081;-75
2023/06/22 02:21:21;;;;;;;15.77;10.38;;;22.30;99.90;;;;;;5000352;28;20058;-75
2023/06/22 02:23:46;;;;;;;17.65;11.45;;;22.30;99.90;;;;;;4999586;28;20034;-75
2023/06/22 02:26:12;;;;;;;14.32;9.93;;;22.30;99.90;;;;;;4999607;28;20034;-75
2023/06/22 02:28:38;;;;;;;16.67;9.88;;;22.20;99.90;;;;;;4999601;28;20018;-75
2023/06/22 02:31:03;;;;;;;16.83;10.80;;;22.00;99.90;;;;;;4999508;28;20068;-75
2023/06/22 02:33:29;;;;;;;15.82;11.02;;;21.90;99.90;;;;;;4999240;28;20038;-75
2023/06/22 02:35:55;;;;;;;13.85;10.05;;;21.90;99.90;;;;;;4999126;28;20066;-75
2023/06/22 02:38:20;;;;;;;15.65;10.35;;;21.80;99.90;;;;;;4999252;28;20125;-75
2023/06/22 02:40:46;;;;;;;21.50;11.07;;;21.80;99.90;;;;;;4999264;28;20049;-75
2023/06/22 02:43:12;;;;;;;15.35;10.57;;;21.90;99.90;;;;;;4999960;28;20022;-75
2023/06/22 02:45:38;;;;;;;13.63;10.15;;;22.00;99.90;;;;;;5000023;28;20019;-75
2023/06/22 02:48:04;;;;;;;16.60;10.82;;;22.00;99.90;;;;;;4999978;28;20029;-75
2023/06/22 02:50:30;;;;;;;14.18;10.60;;;22.10;99.90;;;;;;4999192;28;20037;-75
2023/06/22 02:52:55;;;;;;;20.23;12.18;;;22.00;99.90;;;;;;4998993;28;20031;-75
2023/06/22 02:55:21;;;;;;;18.60;12.30;;;21.90;99.90;;;;;;4999163;28;20059;-75
2023/06/22 02:57:47;;;;;;;14.88;11.32;;;21.90;99.90;;;;;;5000452;28;20030;-75
2023/06/22 03:00:17;;;;;;;16.73;11.63;;;21.90;99.90;;;;;;4998990;28;20026;-75
2023/06/22 03:02:47;;;;;;;16.15;11.05;;;21.90;99.90;;;;;;4998788;28;20026;-75
2023/06/22 03:05:14;;;;;;;24.30;12.13;;;21.90;99.90;;;;;;4999636;28;20073;-75
2023/06/22 03:07:43;;;;;;;20.77;12.10;;;21.90;99.90;;;;;;4998680;28;20038;-75
2023/06/22 03:10:10;;;;;;;20.90;11.60;;;21.70;99.90;;;;;;4998809;28;20050;-75
2023/06/22 03:12:40;;;;;;;19.02;11.57;;;21.70;99.90;;;;;;4997471;28;20019;-75
2023/06/22 03:15:07;;;;;;;16.55;11.50;;;21.80;99.90;;;;;;4999534;28;20081;-75
2023/06/22 03:17:34;;;;;;;15.60;11.18;;;21.80;99.90;;;;;;4998589;28;20023;-75
2023/06/22 03:19:59;;;;;;;17.77;11.70;;;21.80;99.90;;;;;;4998832;28;20026;-75
2023/06/22 03:22:25;;;;;;;15.40;11.48;;;21.80;99.90;;;;;;4998734;28;20077;-75
2023/06/22 03:24:50;;;;;;;19.27;11.80;;;21.70;99.90;;;;;;4998381;28;20022;-75
2023/06/22 03:27:16;;;;;;;15.52;11.88;;;21.70;99.90;;;;;;4998606;28;20019;-75
2023/06/22 03:29:41;;;;;;;18.60;11.77;;;21.90;99.90;;;;;;4998230;28;20025;-75
2023/06/22 03:32:07;;;;;;;19.17;12.45;;;21.90;99.90;;;;;;4998302;28;20022;-75
2023/06/22 03:34:34;;;;;;;24.55;12.45;;;21.80;99.90;;;;;;4998472;28;20060;-75
2023/06/22 03:37:00;;;;;;;18.30;11.35;;;21.80;99.90;;;;;;4998790;28;20042;-75
2023/06/22 03:39:25;;;;;;;17.33;11.80;;;21.80;99.90;;;;;;4998495;28;20030;-75
2023/06/22 03:41:51;;;;;;;15.73;11.63;;;21.80;99.90;;;;;;4998062;28;20034;-75
2023/06/22 03:44:16;;;;;;;19.70;12.45;;;21.90;99.90;;;;;;4998001;28;20077;-75
2023/06/22 03:46:42;;;;;;;20.95;10.70;;;22.00;99.90;;;;;;4997823;28;20065;-75
2023/06/22 03:49:07;;;;;;;17.20;11.13;;;22.10;99.90;;;;;;4997892;28;20022;-75
2023/06/22 03:51:33;;;;;;;17.65;11.73;;;22.00;99.90;;;;;;4998367;28;20030;-75
2023/06/22 03:53:58;;;;;;;17.05;11.65;;;22.00;99.90;;;;;;4998786;28;20076;-75
2023/06/22 03:56:24;;;;;;;24.92;12.50;;;22.00;99.90;;;;;;4998559;28;20034;-75
2023/06/22 03:58:49;;;;;;;18.55;11.23;;;21.80;99.90;;;;;;4997767;28;20092;-75
2023/06/22 04:01:16;;;;;;;20.42;12.63;;;21.70;99.90;;;;;;4997932;28;20034;-75
2023/06/22 04:03:42;;;;;;;21.17;12.70;;;21.70;99.90;;;;;;4997888;28;20069;-75
2023/06/22 04:06:08;;;;;;;14.70;11.75;;;21.70;99.90;;;;;;4998952;28;20052;-75
2023/06/22 04:08:34;;;;;;;17.42;11.80;;;21.50;99.90;;;;;;4997657;28;20022;-75
2023/06/22 04:10:59;;;;;;;23.55;12.65;;;21.50;99.90;;;;;;4997509;28;20080;-75
2023/06/22 04:13:25;;;;;;;21.95;12.82;;;21.60;99.90;;;;;;4997537;28;20018;-75
2023/06/22 04:15:50;;;;;;;20.38;12.27;;;21.50;99.90;;;;;;4997433;28;20030;-75
2023/06/22 04:18:16;;;;;;;30.08;13.52;;;21.40;99.90;;;;;;4997385;28;20026;-75
2023/06/22 04:20:41;;;;;;;25.45;14.20;;;21.40;99.90;;;;;;4997747;28;20026;-75
2023/06/22 04:23:07;;;;;;;23.27;13.65;;;21.50;99.90;;;;;;4996896;28;20030;-75
2023/06/22 04:25:33;;;;;;;22.50;14.27;;;21.40;99.90;;;;;;4997186;28;20109;-75
2023/06/22 04:27:58;;;;;;;23.17;15.07;;;21.30;99.90;;;;;;4997185;28;20029;-75
2023/06/22 04:30:24;;;;;;;24.38;13.40;;;21.30;99.90;;;;;;4997485;28;20029;-75
2023/06/22 04:32:59;;;;;;;19.27;13.75;;;21.30;99.90;;;;;;4997157;28;20072;-74
2023/06/22 04:35:24;;;;;;;21.35;14.13;;;21.40;99.90;;;;;;4998049;28;20034;-75
2023/06/22 04:37:54;;;;;;;21.63;14.35;;;21.50;99.90;;;;;;4997463;28;20107;-75
2023/06/22 04:40:21;;;;;;;26.95;15.07;;;21.50;99.90;;;;;;4997341;28;20037;-74
2023/06/22 04:42:52;;;;;;;22.70;13.77;;;21.50;99.90;;;;;;4997217;28;20033;-75
2023/06/22 04:45:17;;;;;;;23.13;14.57;;;21.40;99.90;;;;;;4997282;28;20072;-75
2023/06/22 04:47:45;;;;;;;22.80;14.20;;;21.50;99.90;;;;;;4998007;28;20101;-75
2023/06/22 04:50:13;;;;;;;20.92;14.10;;;21.40;99.90;;;;;;4996769;28;20031;-75
2023/06/22 04:52:39;;;;;;;22.83;13.35;;;21.50;99.90;;;;;;4996813;28;20027;-75
2023/06/22 04:55:05;;;;;;;23.85;14.15;;;21.50;99.90;;;;;;4997230;28;20018;-75
2023/06/22 04:57:34;;;;;;;21.27;13.70;;;21.50;99.90;;;;;;4997704;28;20029;-75
2023/06/22 05:00:13;;;;;;;27.95;15.77;;;21.40;99.90;;;;;;4996988;28;20026;-75
2023/06/22 05:02:41;;;;;;;23.40;13.88;;;21.50;99.90;;;;;;4997636;28;20164;-75
2023/06/22 05:05:08;;;;;;;22.90;13.70;;;21.50;99.90;;;;;;4997658;28;20022;-75
2023/06/22 05:07:36;;;;;;;19.83;13.15;;;21.60;99.90;;;;;;4998431;28;20029;-75
2023/06/22 05:10:03;;;;;;;24.10;14.73;;;21.50;99.90;;;;;;4998379;28;20027;-75
2023/06/22 05:12:29;;;;;;;22.40;13.73;;;21.60;99.90;;;;;;4996657;28;20054;-75
2023/06/22 05:14:55;;;;;;;22.20;14.02;;;21.60;99.90;;;;;;4996579;28;20062;-75
2023/06/22 05:17:21;;;;;;;28.48;13.60;;;21.60;99.90;;;;;;4996587;28;20030;-75
2023/06/22 05:19:50;;;;;;;21.92;14.00;;;21.60;99.90;;;;;;4996496;28;20027;-75
2023/06/22 05:22:16;;;;;;;26.63;15.35;;;21.70;99.90;;;;;;4996531;28;20058;-75
2023/06/22 05:24:42;;;;;;;24.45;14.10;;;21.70;99.90;;;;;;4997291;28;20066;-75
2023/06/22 05:27:08;;;;;;;20.05;12.85;;;21.70;99.90;;;;;;4996823;28;20030;-75
2023/06/22 05:29:34;;;;;;;25.08;14.10;;;21.70;99.90;;;;;;4996411;28;20022;-75
2023/06/22 05:31:59;;;;;;;21.90;13.38;;;21.80;99.90;;;;;;4996760;28;20019;-75
2023/06/22 05:34:25;;;;;;;16.95;11.98;;;21.80;99.90;;;;;;4996438;28;20037;-75
2023/06/22 05:36:51;;;;;;;24.15;13.85;;;21.90;99.90;;;;;;5000085;28;20112;-75
2023/06/22 05:39:16;;;;;;;22.95;13.18;;;22.00;99.90;;;;;;5001573;28;20050;-75
2023/06/22 05:41:43;;;;;;;18.80;12.40;;;22.20;99.90;;;;;;5000313;28;20030;-75
2023/06/22 05:44:08;;;;;;;20.98;13.65;;;22.10;99.90;;;;;;5000190;28;20026;-75
2023/06/22 05:46:34;;;;;;;26.88;12.38;;;22.20;99.90;;;;;;5000212;28;20106;-75
2023/06/22 05:49:00;;;;;;;18.45;12.88;;;22.10;99.90;;;;;;5000541;28;20081;-75
2023/06/22 05:51:25;;;;;;;19.15;12.20;;;22.10;99.90;;;;;;5000348;28;20029;-75
2023/06/22 05:53:51;;;;;;;19.20;11.98;;;22.10;99.90;;;;;;5001167;28;20037;-75
2023/06/22 05:56:17;;;;;;;20.15;11.93;;;22.30;99.90;;;;;;5000050;28;20086;-75
2023/06/22 05:58:43;;;;;;;18.33;11.25;;;22.30;99.90;;;;;;4999977;28;20031;-75
2023/06/22 06:01:08;;;;;;;17.23;11.57;;;22.20;99.90;;;;;;4999938;28;20109;-75
2023/06/22 06:03:33;;;;;;;20.85;11.77;;;22.30;99.90;;;;;;4999942;28;20030;-75
2023/06/22 06:05:59;;;;;;;20.35;11.18;;;22.30;99.90;;;;;;5000355;28;20026;-75
2023/06/22 06:08:25;;;;;;;19.55;11.25;;;22.40;99.90;;;;;;4999856;28;20030;-75
2023/06/22 06:10:52;;;;;;;16.58;10.95;;;22.40;99.90;;;;;;4999991;28;20033;-75
2023/06/22 06:13:18;;;;;;;19.10;11.30;;;22.50;99.90;;;;;;4999717;28;20022;-75
2023/06/22 06:15:43;;;;;;;17.08;10.52;;;22.50;99.90;;;;;;4999607;28;20022;-75
2023/06/22 06:18:10;;;;;;;18.35;11.00;;;22.50;99.90;;;;;;4999917;28;20030;-75
2023/06/22 06:20:36;;;;;;;19.60;10.90;;;22.60;99.90;;;;;;4999658;28;20048;-75
2023/06/22 06:23:01;;;;;;;15.63;10.43;;;22.70;99.90;;;;;;4999597;28;20033;-75
2023/06/22 06:25:27;;;;;;;17.63;10.30;;;22.60;99.90;;;;;;4999651;28;20026;-75
2023/06/22 06:27:54;;;;;;;19.77;11.20;;;22.70;99.90;;;;;;5000700;28;20038;-75
2023/06/22 06:30:20;;;;;;;15.20;10.65;;;22.80;99.90;;;;;;4999465;28;20026;-75
2023/06/22 06:32:46;;;;;;;16.77;10.63;;;22.90;99.90;;;;;;4999512;28;20030;-75
2023/06/22 06:35:13;;;;;;;17.70;10.05;;;23.00;99.90;;;;;;4999185;28;20034;-73
2023/06/22 06:37:40;;;;;;;16.23;8.88;;;23.00;99.90;;;;;;4999226;28;20025;-73
2023/06/22 06:40:10;;;;;;;19.17;10.40;;;23.00;99.90;;;;;;4999534;28;20026;-73
2023/06/22 06:42:47;;;;;;;17.90;10.48;;;23.10;99.90;;;;;;4999061;28;20054;-74
2023/06/22 06:45:18;;;;;;;13.93;9.13;;;23.10;99.90;;;;;;5000107;28;20077;-72
2023/06/22 06:47:43;;;;;;;19.90;9.23;;;23.10;99.90;;;;;;4999665;28;20033;-73
2023/06/22 06:50:10;;;;;;;10.50;7.70;;;23.20;99.90;;;;;;4999343;28;20030;-74
2023/06/22 06:52:35;;;;;;;13.85;8.85;;;23.30;99.90;;;;;;4999857;28;20117;-75
2023/06/22 06:55:02;;;;;;;10.38;7.88;;;23.30;99.90;;;;;;4999199;28;20057;-74
2023/06/22 06:57:28;;;;;;;13.48;8.45;;;23.50;99.90;;;;;;4999734;28;20049;-75
2023/06/22 06:59:57;;;;;;;10.88;8.23;;;23.50;99.90;;;;;;4999106;28;20034;-75
2023/06/22 07:02:23;;;;;;;13.40;8.77;;;23.60;99.90;;;;;;4998870;28;20094;-76
2023/06/22 07:04:49;;;;;;;15.02;8.95;;;23.70;99.90;;;;;;4999790;28;20030;-76
2023/06/22 07:07:15;;;;;;;15.20;9.10;;;23.70;99.90;;;;;;4998825;28;20024;-75
2023/06/22 07:09:40;;;;;;;19.95;9.18;;;23.70;99.90;;;;;;4999546;28;20044;-75
2023/06/22 07:12:07;;;;;;;13.85;8.80;;;23.80;99.90;;;;;;4998672;28;20029;-74
2023/06/22 07:14:32;;;;;;;14.43;8.98;;;23.90;99.90;;;;;;4998881;28;20027;-74
2023/06/22 07:16:58;;;;;;;19.63;9.82;;;23.90;99.90;;;;;;4998694;28;20030;-75
2023/06/22 07:19:26;;;;;;;14.23;10.18;;;24.00;99.90;;;;;;4998557;28;20113;-75
2023/06/22 07:21:53;;;;;;;12.85;8.25;;;24.00;99.90;;;;;;4998410;28;20033;-75
2023/06/22 07:24:19;;;;;;;10.90;8.02;;;24.10;99.90;;;;;;4999289;28;20022;-75
2023/06/22 07:26:46;;;;;;;10.68;8.13;;;24.10;99.90;;;;;;4998218;28;20022;-75
2023/06/22 07:29:12;;;;;;;10.15;8.30;;;24.20;99.90;;;;;;4998333;28;20023;-75
2023/06/22 07:31:39;;;;;;;12.73;8.88;;;24.30;99.90;;;;;;4998779;28;20015;-75
2023/06/22 07:34:05;;;;;;;16.90;8.90;;;24.30;99.90;;;;;;4998371;28;20026;-74
2023/06/22 07:36:31;;;;;;;14.52;8.75;;;24.40;99.90;;;;;;5027836;23;20045;-76
2023/06/22 07:38:56;;;;;;;28.23;12.63;;;24.60;99.90;;;;;;5018816;28;20029;-76
2023/06/22 07:41:22;;;;;;;19.35;10.57;;;24.60;99.90;;;;;;5034582;28;20109;-76
2023/06/22 07:43:48;;;;;;;17.33;9.68;;;24.70;99.90;;;;;;5018659;28;20028;-76
2023/06/22 07:46:13;;;;;;;11.85;9.20;;;24.80;99.90;;;;;;5018649;28;20022;-76
2023/06/22 07:48:41;;;;;;;15.23;9.85;;;24.80;99.90;;;;;;5018349;28;20025;-76
2023/06/22 07:51:07;;;;;;;18.35;8.77;;;24.90;99.90;;;;;;5018548;28;20025;-76
2023/06/22 07:53:32;;;;;;;9.73;8.02;;;24.80;99.90;;;;;;5017622;28;20085;-76
2023/06/22 07:55:58;;;;;;;13.57;7.97;;;24.90;99.90;;;;;;5017966;28;20037;-76
2023/06/22 07:58:23;;;;;;;28.85;10.73;;;25.00;99.90;;;;;;5016917;28;20017;-77
2023/06/22 08:00:49;;;;;;;14.38;8.82;;;25.10;99.90;;;;;;5017738;28;20117;-76
2023/06/22 08:03:15;;;;;;;12.43;8.30;;;25.30;99.90;;;;;;5018688;28;20033;-76
2023/06/22 08:05:40;;;;;;;14.07;7.60;;;25.30;99.90;;;;;;5017854;28;20053;-75
2023/06/22 08:08:06;;;;;;;13.10;7.95;;;25.40;99.90;;;;;;5017521;28;20030;-76
2023/06/22 08:10:31;;;;;;;12.52;7.68;;;25.50;99.90;;;;;;5017339;28;20125;-73
2023/06/22 08:12:57;;;;;;;14.45;8.40;;;25.50;99.90;;;;;;5017170;28;20051;-74
2023/06/22 08:15:23;;;;;;;11.00;8.18;;;25.60;99.90;;;;;;5017221;28;20026;-74
2023/06/22 08:17:48;;;;;;;13.25;8.35;;;25.70;99.90;;;;;;5017279;28;20040;-75
2023/06/22 08:20:14;;;;;;;14.90;8.23;;;25.80;99.90;;;;;;5017469;28;20026;-74
2023/06/22 08:22:41;;;;;;;18.10;8.35;;;25.90;99.90;;;;;;5017024;28;20053;-74
2023/06/22 08:25:07;;;;;;;20.08;8.55;;;26.10;99.90;;;;;;5016863;28;20028;-75
2023/06/22 08:27:33;;;;;;;11.18;8.38;;;26.20;99.90;;;;;;5017777;28;20082;-75
2023/06/22 08:29:59;;;;;;;14.23;8.35;;;26.10;99.90;;;;;;5017814;28;20046;-76
2023/06/22 08:32:27;;;;;;;15.68;8.90;;;26.20;99.90;;;;;;5017093;28;20029;-76
2023/06/22 08:34:54;;;;;;;11.10;7.20;;;26.20;99.90;;;;;;5017126;28;20030;-75
2023/06/22 08:37:19;;;;;;;13.80;7.97;;;26.20;99.90;;;;;;5017297;28;20042;-75
2023/06/22 08:39:46;;;;;;;11.85;7.45;;;26.30;99.90;;;;;;5017928;28;20026;-76
2023/06/22 08:42:11;;;;;;;18.25;8.43;;;26.50;99.90;;;;;;5018318;28;20025;-76
2023/06/22 08:44:37;;;;;;;13.57;7.95;;;26.60;99.90;;;;;;5017929;28;20100;-77
2023/06/22 08:47:03;;;;;;;10.70;7.80;;;26.60;99.90;;;;;;5016700;28;20022;-77
2023/06/22 08:49:29;;;;;;;9.45;7.55;;;26.60;99.90;;;;;;5017658;28;20094;-78
2023/06/22 08:51:56;;;;;;;9.10;7.57;;;26.80;99.90;;;;;;5016702;28;20046;-77
2023/06/22 08:54:22;;;;;;;10.82;7.22;;;26.80;99.90;;;;;;5017368;28;20037;-78
2023/06/22 08:56:48;;;;;;;10.30;7.60;;;26.90;99.90;;;;;;5016565;28;20022;-77
2023/06/22 08:59:13;;;;;;;10.15;7.38;;;27.00;99.90;;;;;;5016835;28;20026;-78
2023/06/22 09:01:39;;;;;;;8.70;7.28;;;27.20;99.90;;;;;;5017030;28;20129;-78
2023/06/22 09:04:05;;;;;;;10.15;6.70;;;27.20;99.90;;;;;;5017343;28;20083;-78
2023/06/22 09:06:32;;;;;;;12.07;7.38;;;27.30;99.90;;;;;;5017484;28;20049;-77
2023/06/22 09:08:59;;;;;;;8.93;6.72;;;27.60;99.90;;;;;;5016271;28;20033;-77
2023/06/22 09:11:25;;;;;;;8.40;7.18;;;27.60;99.90;;;;;;5016637;28;20029;-77
2023/06/22 09:13:52;;;;;;;13.75;8.25;;;27.70;99.90;;;;;;5017248;28;20026;-77
2023/06/22 09:16:18;;;;;;;10.55;7.97;;;27.70;99.90;;;;;;5016771;28;20030;-77
2023/06/22 09:18:47;;;;;;;9.20;7.20;;;27.80;99.90;;;;;;5017781;28;20022;-77
2023/06/22 09:21:13;;;;;;;10.45;7.80;;;28.00;99.90;;;;;;5016842;28;20022;-77
2023/06/22 09:23:39;;;;;;;11.23;7.28;;;28.10;99.90;;;;;;5016579;28;20030;-77
2023/06/22 09:26:04;;;;;;;12.15;7.35;;;28.10;99.90;;;;;;5016312;28;20029;-78
2023/06/22 09:28:30;;;;;;;10.15;7.05;;;28.00;99.90;;;;;;5016588;28;20022;-77
2023/06/22 09:30:58;;;;;;;11.15;7.80;;;28.00;99.90;;;;;;5016804;28;20029;-77
2023/06/22 09:33:24;;;;;;;15.60;7.38;;;28.10;99.90;;;;;;5017218;28;20026;-77
2023/06/22 09:35:50;;;;;;;12.23;7.28;;;28.20;99.90;;;;;;5016185;28;20033;-77
2023/06/22 09:38:16;;;;;;;11.30;7.15;;;28.40;99.90;;;;;;5016636;28;20034;-77
2023/06/22 09:40:42;;;;;;;10.52;7.00;;;28.50;99.90;;;;;;5016257;28;20094;-77
2023/06/22 09:43:07;;;;;;;11.70;7.40;;;28.80;99.90;;;;;;5016309;28;20040;-77
2023/06/22 09:45:33;;;;;;;10.32;6.90;;;28.80;99.90;;;;;;5017082;28;20030;-76
2023/06/22 09:47:58;;;;;;;13.00;7.35;;;28.90;99.90;;;;;;5017247;28;20164;-77
2023/06/22 09:50:24;;;;;;;9.27;7.20;;;29.10;99.90;;;;;;5017204;28;20033;-77
2023/06/22 09:52:54;;;;;;;10.25;6.85;;;29.10;99.90;;;;;;5016285;28;20022;-77
2023/06/22 09:55:20;;;;;;;9.90;6.68;;;29.10;99.90;;;;;;5017046;28;20038;-77
2023/06/22 09:57:46;;;;;;;10.95;6.85;;;29.00;99.90;;;;;;5016546;28;20026;-77
2023/06/22 10:00:15;;;;;;;10.93;6.88;;;29.20;99.90;;;;;;5016736;28;20092;-76
2023/06/22 10:02:44;;;;;;;10.15;7.38;;;29.40;99.90;;;;;;5018057;28;20018;-77
2023/06/22 10:05:09;;;;;;;12.63;7.13;;;29.40;99.90;;;;;;5017140;28;20077;-76
2023/06/22 10:07:39;;;;;;;9.18;7.47;;;29.30;99.90;;;;;;5017329;28;20018;-76
2023/06/22 10:10:06;;;;;;;8.90;7.00;;;29.30;99.90;;;;;;5018899;28;20018;-77
2023/06/22 10:12:31;;;;;;;8.00;6.63;;;29.20;99.90;;;;;;5017388;28;20095;-77
2023/06/22 10:14:57;;;;;;;7.65;6.57;;;29.40;99.90;;;;;;5017313;28;20030;-76
2023/06/22 10:17:22;;;;;;;9.35;7.35;;;29.70;99.90;;;;;;5016074;28;20097;-76
2023/06/22 10:19:48;;;;;;;12.00;7.40;;;29.50;99.90;;;;;;5015926;28;20030;-76
2023/06/22 10:22:13;;;;;;;11.88;7.60;;;29.60;99.90;;;;;;5018448;28;20025;-76
2023/06/22 10:24:44;;;;;;;11.95;7.53;;;30.00;99.90;;;;;;5019100;28;20076;-77
2023/06/22 10:27:10;;;;;;;8.80;6.85;;;30.20;99.90;;;;;;5019189;28;20025;-77
2023/06/22 10:29:36;;;;;;;8.30;6.78;;;30.10;99.90;;;;;;5019235;28;20022;-77
2023/06/22 10:32:02;;;;;;;8.48;7.60;;;30.00;99.90;;;;;;5019516;28;20024;-77
2023/06/22 10:34:27;;;;;;;11.15;7.60;;;29.80;99.90;;;;;;5020590;28;20026;-76
2023/06/22 10:36:53;;;;;;;9.82;7.65;;;29.60;99.90;;;;;;5019837;28;20042;-77
2023/06/22 10:39:18;;;;;;;7.85;6.50;;;29.40;99.90;;;;;;5018966;28;20034;-76
2023/06/22 10:41:44;;;;;;;7.45;6.65;;;29.70;99.90;;;;;;5019595;28;20064;-77
2023/06/22 10:44:10;;;;;;;7.20;6.40;;;30.10;99.90;;;;;;5019946;28;20056;-77
2023/06/22 10:46:36;;;;;;;13.38;7.45;;;30.40;99.90;;;;;;5019523;28;20029;-75
2023/06/22 10:49:01;;;;;;;8.63;7.25;;;30.50;99.90;;;;;;5018905;28;20021;-75
2023/06/22 10:51:28;;;;;;;11.88;6.75;;;30.60;99.90;;;;;;5018952;28;20026;-75
2023/06/22 10:53:54;;;;;;;15.52;9.57;;;30.70;99.90;;;;;;5019007;28;20076;-76
2023/06/22 10:56:19;;;;;;;10.75;7.00;;;30.70;99.90;;;;;;5019666;28;20053;-75
2023/06/22 10:58:45;;;;;;;8.20;6.97;;;30.60;99.90;;;;;;5018783;28;20050;-75
2023/06/22 11:01:11;;;;;;;9.80;6.97;;;30.40;99.90;;;;;;5018942;28;20022;-75
2023/06/22 11:03:37;;;;;;;10.70;6.70;;;30.50;99.90;;;;;;5018829;28;20092;-76
2023/06/22 11:06:03;;;;;;;8.63;6.75;;;30.80;99.90;;;;;;5019077;28;20033;-76
2023/06/22 11:08:28;;;;;;;11.20;6.85;;;31.20;99.90;;;;;;5019469;28;20041;-76
2023/06/22 11:10:54;;;;;;;10.15;6.88;;;31.30;99.90;;;;;;5018600;28;20049;-77
2023/06/22 11:13:19;;;;;;;7.93;6.10;;;31.50;99.90;;;;;;5018409;28;20083;-76
2023/06/22 11:15:45;;;;;;;10.80;6.05;;;31.50;99.90;;;;;;5018476;28;20076;-76
2023/06/22 11:18:11;;;;;;;7.30;6.60;;;31.20;99.90;;;;;;5018273;28;20037;-76
2023/06/22 11:20:38;;;;;;;9.32;5.97;;;31.10;99.90;;;;;;5018548;28;20026;-75
2023/06/22 11:23:08;;;;;;;10.82;6.43;;;31.10;99.90;;;;;;5018642;28;20025;-74
2023/06/22 11:25:38;;;;;;;6.50;5.72;;;31.40;99.90;;;;;;5019016;28;20022;-74
2023/06/22 11:28:03;;;;;;;8.75;5.95;;;32.00;99.90;;;;;;5018310;28;20076;-75
2023/06/22 11:30:30;;;;;;;10.35;5.75;;;32.00;99.90;;;;;;5018405;28;20030;-76
2023/06/22 11:32:58;;;;;;;8.40;6.50;;;31.90;99.90;;;;;;5016974;28;20117;-74
2023/06/22 11:35:24;;;;;;;10.10;5.80;;;32.10;99.90;;;;;;5018452;28;20101;-76
2023/06/22 11:37:49;;;;;;;7.72;5.43;;;32.30;99.90;;;;;;5018055;28;20116;-75
2023/06/22 11:40:17;;;;;;;6.10;5.53;;;32.30;99.90;;;;;;5018302;28;20073;-75
2023/06/22 11:42:43;;;;;;;6.95;6.18;;;32.60;99.90;;;;;;5018116;28;20022;-76
2023/06/22 11:45:09;;;;;;;6.40;5.75;;;32.80;99.90;;;;;;5018294;28;20080;-76
2023/06/22 11:47:35;;;;;;;8.48;6.10;;;32.70;99.90;;;;;;5018994;28;20026;-74
2023/06/22 11:50:00;;;;;;;6.20;5.60;;;32.70;99.90;;;;;;5018142;28;20018;-74
2023/06/22 11:52:27;;;;;;;9.00;6.03;;;33.00;99.90;;;;;;5017876;28;20026;-73
2023/06/22 11:54:52;;;;;;;7.95;5.57;;;33.10;99.90;;;;;;5018231;28;20022;-74
2023/06/22 11:57:18;;;;;;;6.93;5.30;;;33.20;99.90;;;;;;5017965;28;20033;-73
2023/06/22 11:59:43;;;;;;;7.95;5.70;;;33.40;99.90;;;;;;5017398;28;20026;-74
2023/06/22 12:02:09;;;;;;;8.95;5.78;;;33.50;99.90;;;;;;5018356;28;20036;-74
2023/06/22 12:04:35;;;;;;;7.45;5.25;;;33.20;99.90;;;;;;5017305;28;20018;-74
2023/06/22 12:07:00;;;;;;;6.68;4.88;;;33.30;99.90;;;;;;5017963;28;20053;-74
2023/06/22 12:09:27;;;;;;;7.80;5.88;;;33.30;99.90;;;;;;5017394;28;20022;-75
2023/06/22 12:11:53;;;;;;;7.57;5.88;;;33.00;99.90;;;;;;5018280;28;20080;-76
2023/06/22 12:14:18;;;;;;;6.40;5.32;;;33.30;99.90;;;;;;5017222;28;20034;-75
2023/06/22 12:16:44;;;;;;;6.65;5.25;;;33.50;99.90;;;;;;5017654;28;20054;-75
2023/06/22 12:19:10;;;;;;;7.43;4.80;;;33.60;99.90;;;;;;5017412;28;20037;-76
2023/06/22 12:21:39;;;;;;;10.98;5.45;;;34.20;99.50;;;;;;5017033;28;20026;-76
2023/06/22 12:24:04;;;;;;;5.28;4.60;;;34.70;96.50;;;;;;5017441;28;20029;-76
2023/06/22 12:26:30;;;;;;;10.18;5.28;;;34.30;98.30;;;;;;5017283;28;20048;-76
2023/06/22 12:28:55;;;;;;;9.57;5.72;;;34.00;97.60;;;;;;5017671;28;20048;-75
2023/06/22 12:31:21;;;;;;;6.40;4.75;;;34.20;97.90;;;;;;5016903;28;20033;-75